createdAt,value
2019-01-15T00:00:19.706Z,3.2
2019-01-15T00:01:21.085Z,3.2
2019-01-15T00:02:22.465Z,3.2
2019-01-15T00:03:23.843Z,3.2
2019-01-15T00:04:25.216Z,3.2
2019-01-15T00:05:26.601Z,3.3
2019-01-15T00:06:27.982Z,3.2
2019-01-15T00:07:29.363Z,3.3
2019-01-15T00:08:30.749Z,3.3
2019-01-15T00:09:32.187Z,3.3
2019-01-15T00:10:33.567Z,3.3
2019-01-15T00:11:34.947Z,3.3
2019-01-15T00:12:36.323Z,3.2
2019-01-15T00:13:37.705Z,3.3
2019-01-15T00:14:39.121Z,3.3
2019-01-15T00:15:40.496Z,3.3
2019-01-15T00:16:41.876Z,3.4
2019-01-15T00:17:43.259Z,3.3
2019-01-15T00:18:44.633Z,3.3
2019-01-15T00:19:46.008Z,3.4
2019-01-15T00:20:47.434Z,3.4
2019-01-15T00:21:48.809Z,3.4
2019-01-15T00:22:50.225Z,3.4
2019-01-15T00:23:51.608Z,3.4
2019-01-15T00:24:52.980Z,3.3
2019-01-15T00:25:54.364Z,3.4
2019-01-15T00:26:55.740Z,3.3
2019-01-15T00:27:57.123Z,3.3
2019-01-15T00:28:58.503Z,3.4
2019-01-15T00:29:59.884Z,3.4
2019-01-15T00:31:01.290Z,3.4
2019-01-15T00:32:02.670Z,3.5
2019-01-15T00:33:04.047Z,3.5
2019-01-15T00:34:05.430Z,3.5
2019-01-15T00:35:06.807Z,3.5
2019-01-15T00:36:08.184Z,3.5
2019-01-15T00:37:09.806Z,3.5
2019-01-15T00:38:11.308Z,3.5
2019-01-15T00:39:12.633Z,3.5
2019-01-15T00:40:14.011Z,3.5
2019-01-15T00:41:15.391Z,3.5
2019-01-15T00:42:16.771Z,3.6
2019-01-15T00:43:18.181Z,3.5
2019-01-15T00:44:19.565Z,3.7
2019-01-15T00:45:20.945Z,3.5
2019-01-15T00:46:22.323Z,3.6
2019-01-15T00:47:23.710Z,3.6
2019-01-15T00:48:25.088Z,3.5
2019-01-15T00:49:26.463Z,3.7
2019-01-15T00:50:27.866Z,3.7
2019-01-15T00:51:29.266Z,3.7
2019-01-15T00:52:30.710Z,3.7
2019-01-15T00:53:32.087Z,3.7
2019-01-15T00:54:33.461Z,3.6
2019-01-15T00:55:34.840Z,3.7
2019-01-15T00:56:36.221Z,3.8
2019-01-15T00:57:37.608Z,3.7
2019-01-15T00:58:38.979Z,3.8
2019-01-15T00:59:40.361Z,3.8
2019-01-15T01:00:41.746Z,3.7
2019-01-15T01:01:43.125Z,3.7
2019-01-15T01:02:44.499Z,3.8
2019-01-15T01:03:45.882Z,3.8
2019-01-15T01:04:47.262Z,3.9
2019-01-15T01:05:48.645Z,3.8
2019-01-15T01:06:50.033Z,3.9
2019-01-15T01:07:51.414Z,3.8
2019-01-15T01:08:52.796Z,3.9
2019-01-15T01:09:54.171Z,3.9
2019-01-15T01:10:55.550Z,3.9
2019-01-15T01:11:56.926Z,3.9
2019-01-15T01:12:58.304Z,3.9
2019-01-15T01:13:59.688Z,3.9
2019-01-15T01:15:01.128Z,3.9
2019-01-15T01:16:02.505Z,3.9
2019-01-15T01:17:03.881Z,3.9
2019-01-15T01:18:05.262Z,3.9
2019-01-15T01:19:06.641Z,3.9
2019-01-15T01:20:08.019Z,3.9
2019-01-15T01:21:09.400Z,3.9
2019-01-15T01:22:10.811Z,4.0
2019-01-15T01:23:12.193Z,4.0
2019-01-15T01:24:13.617Z,4.0
2019-01-15T01:25:14.998Z,4.0
2019-01-15T01:26:16.378Z,4.0
2019-01-15T01:27:17.758Z,4.0
2019-01-15T01:28:19.310Z,4.1
2019-01-15T01:29:20.758Z,4.1
2019-01-15T01:30:22.139Z,4.1
2019-01-15T01:31:23.520Z,4.1
2019-01-15T01:32:24.900Z,4.1
2019-01-15T01:33:26.284Z,4.2
2019-01-15T01:34:27.660Z,4.0
2019-01-15T01:35:29.039Z,4.1
2019-01-15T01:36:30.419Z,4.1
2019-01-15T01:37:31.805Z,4.1
2019-01-15T01:38:33.254Z,4.2
2019-01-15T01:39:34.633Z,4.2
2019-01-15T01:40:36.012Z,4.2
2019-01-15T01:41:37.393Z,4.2
2019-01-15T01:42:38.804Z,4.2
2019-01-15T01:43:40.197Z,4.2
2019-01-15T01:44:41.576Z,4.2
2019-01-15T01:45:42.954Z,4.1
2019-01-15T01:46:44.332Z,4.2
2019-01-15T01:47:45.713Z,4.2
2019-01-15T01:48:47.134Z,4.2
2019-01-15T01:49:48.520Z,4.3
2019-01-15T01:50:49.900Z,4.3
2019-01-15T01:51:51.277Z,4.4
2019-01-15T01:52:52.695Z,4.3
2019-01-15T01:53:54.071Z,4.3
2019-01-15T01:54:55.448Z,4.4
2019-01-15T01:55:56.831Z,4.3
2019-01-15T01:56:58.213Z,4.4
2019-01-15T01:57:59.592Z,4.4
2019-01-15T01:59:00.968Z,4.3
2019-01-15T02:00:02.344Z,4.3
2019-01-15T02:01:03.836Z,4.4
2019-01-15T02:02:05.218Z,4.4
2019-01-15T02:03:06.596Z,4.4
2019-01-15T02:04:08.017Z,4.4
2019-01-15T02:05:09.397Z,4.4
2019-01-15T02:06:10.772Z,4.5
2019-01-15T02:07:12.150Z,4.4
2019-01-15T02:08:13.571Z,4.5
2019-01-15T02:09:14.950Z,4.5
2019-01-15T02:10:16.390Z,4.5
2019-01-15T02:11:17.770Z,4.5
2019-01-15T02:12:19.152Z,4.5
2019-01-15T02:13:20.534Z,4.5
2019-01-15T02:14:21.915Z,4.5
2019-01-15T02:15:23.300Z,4.5
2019-01-15T02:16:24.680Z,4.6
2019-01-15T02:17:26.065Z,4.6
2019-01-15T02:18:27.448Z,4.5
2019-01-15T02:19:28.959Z,4.5
2019-01-15T02:20:30.348Z,4.5
2019-01-15T02:21:31.731Z,4.6
2019-01-15T02:22:33.110Z,4.5
2019-01-15T02:23:34.488Z,4.6
2019-01-15T02:24:35.900Z,4.6
2019-01-15T02:25:37.276Z,4.7
2019-01-15T02:26:38.659Z,4.6
2019-01-15T02:27:40.032Z,4.7
2019-01-15T02:28:41.411Z,4.6
2019-01-15T02:29:42.788Z,4.6
2019-01-15T02:30:44.225Z,4.6
2019-01-15T02:31:45.605Z,4.7
2019-01-15T02:32:46.989Z,4.7
2019-01-15T02:33:48.367Z,4.6
2019-01-15T02:34:49.749Z,4.7
2019-01-15T02:35:51.126Z,4.6
2019-01-15T02:36:52.505Z,4.7
2019-01-15T02:37:53.879Z,4.7
2019-01-15T02:38:55.255Z,4.7
2019-01-15T02:39:56.667Z,4.7
2019-01-15T02:40:58.046Z,4.7
2019-01-15T02:41:59.424Z,4.7
2019-01-15T02:43:00.801Z,4.7
2019-01-15T02:44:02.179Z,4.7
2019-01-15T02:45:03.558Z,4.7
2019-01-15T02:46:04.956Z,4.7
2019-01-15T02:47:06.376Z,4.6
2019-01-15T02:48:07.759Z,4.7
2019-01-15T02:49:09.132Z,4.6
2019-01-15T02:50:10.511Z,4.7
2019-01-15T02:51:11.886Z,4.7
2019-01-15T02:52:13.265Z,4.7
2019-01-15T02:53:14.643Z,4.8
2019-01-15T02:54:16.025Z,4.7
2019-01-15T02:55:17.405Z,4.7
2019-01-15T02:56:18.781Z,4.7
2019-01-15T02:57:20.163Z,4.7
2019-01-15T02:58:21.543Z,4.7
2019-01-15T02:59:22.891Z,4.7
2019-01-15T03:00:24.275Z,4.7
2019-01-15T03:01:25.772Z,4.7
2019-01-15T03:02:27.161Z,4.8
2019-01-15T03:03:28.543Z,4.7
2019-01-15T03:04:29.918Z,4.7
2019-01-15T03:05:31.295Z,4.8
2019-01-15T03:06:32.674Z,4.8
2019-01-15T03:07:34.049Z,4.8
2019-01-15T03:08:35.430Z,4.8
2019-01-15T03:09:36.826Z,4.8
2019-01-15T03:10:38.407Z,4.8
2019-01-15T03:11:39.937Z,4.8
2019-01-15T03:12:41.307Z,4.7
2019-01-15T03:13:42.697Z,4.8
2019-01-15T03:14:44.085Z,4.8
2019-01-15T03:15:45.496Z,4.8
2019-01-15T03:16:46.882Z,4.8
2019-01-15T03:17:48.263Z,4.8
2019-01-15T03:18:49.645Z,4.8
2019-01-15T03:19:51.032Z,4.9
2019-01-15T03:20:52.422Z,4.8
2019-01-15T03:21:53.820Z,4.8
2019-01-15T03:22:55.208Z,4.9
2019-01-15T03:23:56.583Z,4.9
2019-01-15T03:24:57.953Z,4.8
2019-01-15T03:25:59.334Z,4.8
2019-01-15T03:27:00.713Z,4.8
2019-01-15T03:28:02.096Z,4.8
2019-01-15T03:29:03.480Z,4.9
2019-01-15T03:30:04.892Z,4.8
2019-01-15T03:31:06.314Z,4.8
2019-01-15T03:32:07.712Z,4.8
2019-01-15T03:33:09.063Z,4.8
2019-01-15T03:34:10.440Z,4.8
2019-01-15T03:35:11.819Z,4.8
2019-01-15T03:36:13.220Z,4.8
2019-01-15T03:37:14.585Z,4.8
2019-01-15T03:38:15.966Z,4.8
2019-01-15T03:39:17.344Z,4.8
2019-01-15T03:40:18.722Z,4.8
2019-01-15T03:41:20.101Z,5.0
2019-01-15T03:42:21.488Z,4.9
2019-01-15T03:43:22.869Z,4.9
2019-01-15T03:44:24.276Z,4.9
2019-01-15T03:45:25.648Z,4.9
2019-01-15T03:46:27.010Z,4.8
2019-01-15T03:47:28.385Z,4.9
2019-01-15T03:48:29.764Z,4.9
2019-01-15T03:49:31.165Z,4.9
2019-01-15T03:50:32.555Z,5.0
2019-01-15T03:51:33.938Z,4.9
2019-01-15T03:52:35.330Z,4.9
2019-01-15T03:53:36.716Z,4.9
2019-01-15T03:54:38.093Z,4.9
2019-01-15T03:55:39.484Z,4.9
2019-01-15T03:56:40.857Z,4.9
2019-01-15T03:57:42.236Z,4.9
2019-01-15T03:58:43.618Z,4.9
2019-01-15T03:59:44.998Z,4.9
2019-01-15T04:00:46.378Z,4.9
2019-01-15T04:01:47.927Z,4.9
2019-01-15T04:02:49.335Z,4.9
2019-01-15T04:03:50.735Z,4.9
2019-01-15T04:04:52.278Z,4.8
2019-01-15T04:05:53.652Z,4.9
2019-01-15T04:06:55.032Z,4.9
2019-01-15T04:07:56.411Z,4.9
2019-01-15T04:08:57.788Z,4.9
2019-01-15T04:09:59.168Z,4.8
2019-01-15T04:11:00.557Z,4.8
2019-01-15T04:12:01.931Z,4.9
2019-01-15T04:13:11.055Z,4.9
2019-01-15T04:14:04.654Z,4.9
2019-01-15T04:15:06.034Z,4.9
2019-01-15T04:16:07.409Z,4.9
2019-01-15T04:17:08.787Z,4.9
2019-01-15T04:18:10.181Z,4.9
2019-01-15T04:19:11.561Z,4.8
2019-01-15T04:20:12.946Z,4.8
2019-01-15T04:21:14.402Z,4.8
2019-01-15T04:22:16.425Z,4.8
2019-01-15T04:23:17.794Z,4.8
2019-01-15T04:24:19.174Z,4.8
2019-01-15T04:25:20.556Z,4.8
2019-01-15T04:26:21.939Z,4.8
2019-01-15T04:27:23.321Z,4.9
2019-01-15T04:28:24.699Z,4.8
2019-01-15T04:29:26.072Z,4.8
2019-01-15T04:30:27.450Z,4.7
2019-01-15T04:31:28.828Z,4.8
2019-01-15T04:32:30.205Z,4.7
2019-01-15T04:33:31.586Z,4.8
2019-01-15T04:34:32.965Z,4.8
2019-01-15T04:35:34.350Z,4.8
2019-01-15T04:36:35.725Z,4.7
2019-01-15T04:37:37.104Z,4.8
2019-01-15T04:38:38.558Z,4.8
2019-01-15T04:39:39.915Z,4.8
2019-01-15T04:40:41.287Z,4.8
2019-01-15T04:41:42.674Z,4.8
2019-01-15T04:42:44.052Z,4.8
2019-01-15T04:43:45.429Z,4.8
2019-01-15T04:44:46.809Z,4.8
2019-01-15T04:45:48.184Z,4.8
2019-01-15T04:46:49.572Z,4.8
2019-01-15T04:47:50.953Z,4.8
2019-01-15T04:48:52.332Z,4.8
2019-01-15T04:49:53.709Z,4.9
2019-01-15T04:50:55.085Z,4.8
2019-01-15T04:51:56.521Z,4.8
2019-01-15T04:52:57.988Z,4.7
2019-01-15T04:53:59.364Z,4.7
2019-01-15T04:55:00.744Z,4.7
2019-01-15T04:56:02.127Z,4.7
2019-01-15T04:57:03.511Z,4.7
2019-01-15T04:58:04.889Z,4.7
2019-01-15T04:59:06.266Z,4.7
2019-01-15T05:00:07.650Z,4.7
2019-01-15T05:01:09.024Z,4.6
2019-01-15T05:02:10.401Z,4.6
2019-01-15T05:03:11.784Z,4.6
2019-01-15T05:04:13.164Z,4.7
2019-01-15T05:05:14.541Z,4.6
2019-01-15T05:06:15.923Z,4.6
2019-01-15T05:07:17.400Z,4.6
2019-01-15T05:08:18.864Z,4.5
2019-01-15T05:09:20.241Z,4.6
2019-01-15T05:10:21.620Z,4.6
2019-01-15T05:11:22.998Z,4.5
2019-01-15T05:12:24.374Z,4.6
2019-01-15T05:13:27.488Z,4.5
2019-01-15T05:14:27.161Z,4.6
2019-01-15T05:15:28.515Z,4.6
2019-01-15T05:16:29.915Z,4.6
2019-01-15T05:17:31.289Z,4.6
2019-01-15T05:18:32.668Z,4.5
2019-01-15T05:19:34.046Z,4.7
2019-01-15T05:20:35.417Z,4.6
2019-01-15T05:21:36.798Z,4.7
2019-01-15T05:22:38.175Z,4.6
2019-01-15T05:23:39.557Z,4.6
2019-01-15T05:24:40.944Z,4.7
2019-01-15T05:25:42.313Z,4.6
2019-01-15T05:26:43.691Z,4.6
2019-01-15T05:27:45.069Z,4.6
2019-01-15T05:28:46.445Z,4.6
2019-01-15T05:29:47.824Z,4.6
2019-01-15T05:30:49.204Z,4.6
2019-01-15T05:31:50.586Z,4.6
2019-01-15T05:32:51.970Z,4.5
2019-01-15T05:33:53.344Z,4.6
2019-01-15T05:34:54.734Z,4.5
2019-01-15T05:35:56.112Z,4.5
2019-01-15T05:36:57.495Z,4.5
2019-01-15T05:37:58.870Z,4.5
2019-01-15T05:39:00.259Z,4.6
2019-01-15T05:40:01.642Z,4.5
2019-01-15T05:41:05.258Z,4.6
2019-01-15T05:42:06.631Z,4.6
2019-01-15T05:43:08.032Z,4.7
2019-01-15T05:44:10.202Z,4.7
2019-01-15T05:45:11.159Z,4.7
2019-01-15T05:46:12.575Z,4.8
2019-01-15T05:47:13.960Z,4.7
2019-01-15T05:48:15.350Z,4.8
2019-01-15T05:49:16.804Z,4.8
2019-01-15T05:50:18.181Z,4.8
2019-01-15T05:51:19.560Z,4.8
2019-01-15T05:52:21.004Z,4.8
2019-01-15T05:53:22.384Z,4.7
2019-01-15T05:54:23.765Z,4.7
2019-01-15T05:55:25.231Z,4.7
2019-01-15T05:56:26.616Z,4.8
2019-01-15T05:57:27.984Z,4.8
2019-01-15T05:58:29.444Z,4.8
2019-01-15T05:59:30.819Z,4.9
2019-01-15T06:00:32.203Z,4.8
2019-01-15T06:01:33.661Z,4.8
2019-01-15T06:02:35.037Z,4.9
2019-01-15T06:03:36.417Z,4.8
2019-01-15T06:04:37.796Z,4.8
2019-01-15T06:05:39.199Z,4.9
2019-01-15T06:06:40.578Z,4.9
2019-01-15T06:07:41.961Z,4.9
2019-01-15T06:08:43.461Z,4.9
2019-01-15T06:09:44.932Z,4.9
2019-01-15T06:10:46.369Z,4.9
2019-01-15T06:11:47.838Z,4.9
2019-01-15T06:12:49.252Z,5.0
2019-01-15T06:13:50.628Z,4.9
2019-01-15T06:14:52.048Z,5.0
2019-01-15T06:15:53.519Z,5.0
2019-01-15T06:16:54.909Z,5.0
2019-01-15T06:17:56.360Z,5.0
2019-01-15T06:18:57.764Z,5.1
2019-01-15T06:19:59.154Z,5.1
2019-01-15T06:21:00.582Z,5.1
2019-01-15T06:22:02.030Z,5.1
2019-01-15T06:23:03.412Z,5.1
2019-01-15T06:24:04.786Z,5.2
2019-01-15T06:25:06.233Z,5.2
2019-01-15T06:26:07.692Z,5.1
2019-01-15T06:27:09.072Z,5.2
2019-01-15T06:28:10.455Z,5.2
2019-01-15T06:29:12.043Z,5.2
2019-01-15T06:30:13.454Z,5.2
2019-01-15T06:31:14.833Z,5.2
2019-01-15T06:32:16.233Z,5.2
2019-01-15T06:33:17.616Z,5.2
2019-01-15T06:34:19.031Z,5.3
2019-01-15T06:35:20.456Z,5.3
2019-01-15T06:36:21.837Z,5.2
2019-01-15T06:37:23.218Z,5.2
2019-01-15T06:38:24.643Z,5.2
2019-01-15T06:39:26.029Z,5.3
2019-01-15T06:40:27.412Z,5.3
2019-01-15T06:41:29.426Z,5.3
2019-01-15T06:42:30.922Z,5.2
2019-01-15T06:43:32.303Z,5.2
2019-01-15T06:44:33.680Z,5.3
2019-01-15T06:45:35.056Z,5.3
2019-01-15T06:46:37.201Z,5.2
2019-01-15T06:47:38.594Z,5.3
2019-01-15T06:48:39.973Z,5.2
2019-01-15T06:49:41.413Z,5.3
2019-01-15T06:50:42.812Z,5.3
2019-01-15T06:51:44.267Z,5.3
2019-01-15T06:52:45.687Z,5.3
2019-01-15T06:53:47.066Z,5.3
2019-01-15T06:54:48.439Z,5.2
2019-01-15T06:55:49.825Z,5.3
2019-01-15T06:56:51.354Z,5.2
2019-01-15T06:57:52.734Z,5.2
2019-01-15T06:58:54.140Z,5.3
2019-01-15T06:59:55.575Z,5.3
2019-01-15T07:00:56.959Z,5.2
2019-01-15T07:01:58.361Z,5.2
2019-01-15T07:02:59.792Z,5.3
2019-01-15T07:04:01.154Z,5.2
2019-01-15T07:05:02.613Z,5.2
2019-01-15T07:06:03.973Z,5.3
2019-01-15T07:07:05.349Z,5.4
2019-01-15T07:08:06.724Z,5.4
2019-01-15T07:09:08.101Z,5.4
2019-01-15T07:10:09.480Z,5.4
2019-01-15T07:11:10.962Z,5.4
2019-01-15T07:12:12.338Z,5.3
2019-01-15T07:13:13.723Z,5.4
2019-01-15T07:14:15.116Z,5.4
2019-01-15T07:15:16.482Z,5.4
2019-01-15T07:16:17.870Z,5.5
2019-01-15T07:17:19.437Z,5.5
2019-01-15T07:18:20.869Z,5.5
2019-01-15T07:19:22.312Z,5.5
2019-01-15T07:20:23.736Z,5.5
2019-01-15T07:21:25.118Z,5.5
2019-01-15T07:22:26.497Z,5.6
2019-01-15T07:23:27.879Z,5.5
2019-01-15T07:24:29.255Z,5.5
2019-01-15T07:25:30.723Z,5.6
2019-01-15T07:26:32.244Z,5.5
2019-01-15T07:27:33.625Z,5.6
2019-01-15T07:28:35.001Z,5.5
2019-01-15T07:29:36.386Z,5.5
2019-01-15T07:30:37.766Z,5.4
2019-01-15T07:31:39.145Z,5.5
2019-01-15T07:32:40.528Z,5.5
2019-01-15T07:33:41.916Z,5.6
2019-01-15T07:34:43.296Z,5.6
2019-01-15T07:35:44.677Z,5.6
2019-01-15T07:36:46.064Z,5.5
2019-01-15T07:37:47.454Z,5.6
2019-01-15T07:38:48.828Z,5.6
2019-01-15T07:39:50.235Z,5.6
2019-01-15T07:40:51.616Z,5.7
2019-01-15T07:41:52.998Z,5.6
2019-01-15T07:42:54.381Z,5.7
2019-01-15T07:43:55.763Z,5.7
2019-01-15T07:44:57.139Z,5.7
2019-01-15T07:45:58.524Z,5.6
2019-01-15T07:47:00.146Z,5.6
2019-01-15T07:48:01.581Z,5.6
2019-01-15T07:49:02.962Z,5.6
2019-01-15T07:50:04.340Z,5.7
2019-01-15T07:51:05.746Z,5.7
2019-01-15T07:52:07.134Z,5.7
2019-01-15T07:53:08.517Z,5.7
2019-01-15T07:54:09.919Z,5.7
2019-01-15T07:55:11.301Z,5.7
2019-01-15T07:56:12.794Z,5.7
2019-01-15T07:57:14.180Z,5.8
2019-01-15T07:58:15.574Z,5.8
2019-01-15T07:59:16.943Z,5.8
2019-01-15T08:00:18.324Z,5.8
2019-01-15T08:01:19.769Z,5.8
2019-01-15T08:02:21.151Z,5.8
2019-01-15T08:03:22.585Z,5.8
2019-01-15T08:04:24.006Z,5.8
2019-01-15T08:05:25.357Z,5.9
2019-01-15T08:06:27.833Z,6.0
2019-01-15T08:07:28.151Z,6.0
2019-01-15T08:08:29.623Z,6.0
2019-01-15T08:09:31.004Z,6.0
2019-01-15T08:10:32.498Z,6.0
2019-01-15T08:11:33.877Z,6.0
2019-01-15T08:12:35.264Z,6.0
2019-01-15T08:13:36.655Z,5.9
2019-01-15T08:14:38.033Z,6.0
2019-01-15T08:15:39.441Z,6.0
2019-01-15T08:16:40.815Z,6.1
2019-01-15T08:17:42.198Z,6.0
2019-01-15T08:18:43.583Z,6.0
2019-01-15T08:19:44.965Z,6.1
2019-01-15T08:20:46.349Z,6.0
2019-01-15T08:21:47.844Z,6.0
2019-01-15T08:22:49.232Z,6.1
2019-01-15T08:23:50.614Z,6.0
2019-01-15T08:24:52.002Z,6.0
2019-01-15T08:25:53.385Z,6.2
2019-01-15T08:26:54.808Z,6.2
2019-01-15T08:27:56.189Z,6.1
2019-01-15T08:28:57.571Z,6.2
2019-01-15T08:29:58.955Z,6.1
2019-01-15T08:31:00.342Z,6.2
2019-01-15T08:32:01.727Z,6.2
2019-01-15T08:33:03.109Z,6.2
2019-01-15T08:34:04.491Z,6.2
2019-01-15T08:35:05.880Z,6.2
2019-01-15T08:36:07.263Z,6.2
2019-01-15T08:37:08.651Z,6.2
2019-01-15T08:38:10.029Z,6.3
2019-01-15T08:39:11.414Z,6.3
2019-01-15T08:40:12.804Z,6.3
2019-01-15T08:41:14.185Z,6.3
2019-01-15T08:42:15.577Z,6.2
2019-01-15T08:43:16.962Z,6.3
2019-01-15T08:44:19.306Z,6.3
2019-01-15T08:45:19.695Z,6.3
2019-01-15T08:46:21.079Z,6.3
2019-01-15T08:47:22.460Z,6.3
2019-01-15T08:48:23.846Z,6.3
2019-01-15T08:49:25.237Z,6.4
2019-01-15T08:50:26.614Z,6.4
2019-01-15T08:51:27.997Z,6.4
2019-01-15T08:52:29.379Z,6.5
2019-01-15T08:53:30.782Z,6.4
2019-01-15T08:54:32.156Z,6.6
2019-01-15T08:55:33.540Z,6.7
2019-01-15T08:56:34.926Z,6.6
2019-01-15T08:57:36.308Z,6.7
2019-01-15T08:58:37.692Z,6.7
2019-01-15T08:59:39.288Z,6.8
2019-01-15T09:00:40.739Z,6.7
2019-01-15T09:01:42.040Z,6.9
2019-01-15T09:02:43.421Z,6.8
2019-01-15T09:03:44.800Z,6.8
2019-01-15T09:04:46.187Z,6.8
2019-01-15T09:05:47.572Z,6.9
2019-01-15T09:06:48.958Z,6.9
2019-01-15T09:07:50.347Z,7.0
2019-01-15T09:08:51.732Z,7.0
2019-01-15T09:09:53.114Z,6.9
2019-01-15T09:10:54.501Z,7.0
2019-01-15T09:11:55.881Z,7.0
2019-01-15T09:12:57.267Z,7.1
2019-01-15T09:13:58.651Z,7.0
2019-01-15T09:15:00.036Z,7.0
2019-01-15T09:16:01.418Z,7.1
2019-01-15T09:17:02.806Z,7.1
2019-01-15T09:18:04.197Z,7.1
2019-01-15T09:19:05.578Z,7.1
2019-01-15T09:20:06.967Z,7.1
2019-01-15T09:21:08.351Z,7.2
2019-01-15T09:22:09.745Z,7.2
2019-01-15T09:23:11.129Z,7.4
2019-01-15T09:24:12.517Z,7.4
2019-01-15T09:25:13.904Z,7.4
2019-01-15T09:26:15.442Z,7.5
2019-01-15T09:27:16.642Z,7.5
2019-01-15T09:28:18.029Z,7.6
2019-01-15T09:29:19.413Z,7.6
2019-01-15T09:30:20.797Z,7.6
2019-01-15T09:31:22.185Z,7.6
2019-01-15T09:32:23.571Z,7.6
2019-01-15T09:33:24.958Z,7.7
2019-01-15T09:34:26.351Z,7.8
2019-01-15T09:35:27.731Z,7.8
2019-01-15T09:36:29.121Z,7.8
2019-01-15T09:37:30.501Z,7.7
2019-01-15T09:38:31.888Z,7.8
2019-01-15T09:39:33.272Z,7.8
2019-01-15T09:40:34.655Z,7.8
2019-01-15T09:41:36.045Z,7.8
2019-01-15T09:42:37.428Z,7.8
2019-01-15T09:43:38.847Z,7.8
2019-01-15T09:44:40.213Z,7.8
2019-01-15T09:45:41.599Z,7.8
2019-01-15T09:46:42.986Z,7.8
2019-01-15T09:47:44.372Z,7.7
2019-01-15T09:48:45.757Z,7.8
2019-01-15T09:49:47.145Z,7.8
2019-01-15T09:50:48.538Z,7.8
2019-01-15T09:51:50.099Z,7.7
2019-01-15T09:52:51.485Z,7.8
2019-01-15T09:53:52.870Z,7.8
2019-01-15T09:54:54.254Z,7.8
2019-01-15T09:55:55.643Z,7.8
2019-01-15T09:56:57.027Z,7.7
2019-01-15T09:57:58.424Z,7.9
2019-01-15T09:58:59.806Z,7.9
2019-01-15T10:00:01.195Z,7.9
2019-01-15T10:01:02.603Z,7.9
2019-01-15T10:02:03.989Z,8.0
2019-01-15T10:03:05.376Z,8.0
2019-01-15T10:04:06.760Z,8.0
2019-01-15T10:05:08.143Z,8.0
2019-01-15T10:06:09.531Z,8.0
2019-01-15T10:07:10.917Z,8.1
2019-01-15T10:08:12.301Z,8.2
2019-01-15T10:09:13.691Z,8.2
2019-01-15T10:10:15.079Z,8.3
2019-01-15T10:11:16.463Z,8.4
2019-01-15T10:12:17.847Z,8.4
2019-01-15T10:13:19.238Z,8.4
2019-01-15T10:14:20.624Z,8.5
2019-01-15T10:15:22.010Z,8.4
2019-01-15T10:16:23.405Z,8.4
2019-01-15T10:17:24.794Z,8.5
2019-01-15T10:18:26.185Z,8.5
2019-01-15T10:19:27.576Z,8.6
2019-01-15T10:20:28.966Z,8.6
2019-01-15T10:21:30.350Z,8.5
2019-01-15T10:22:31.768Z,8.5
2019-01-15T10:23:33.126Z,8.5
2019-01-15T10:24:34.514Z,8.5
2019-01-15T10:25:35.902Z,8.5
2019-01-15T10:26:37.291Z,8.5
2019-01-15T10:27:38.686Z,8.5
2019-01-15T10:28:40.067Z,8.4
2019-01-15T10:29:41.460Z,8.5
2019-01-15T10:30:42.926Z,8.4
2019-01-15T10:31:44.315Z,8.4
2019-01-15T10:32:45.707Z,8.4
2019-01-15T10:33:47.096Z,8.4
2019-01-15T10:34:48.524Z,8.5
2019-01-15T10:35:49.908Z,8.5
2019-01-15T10:36:51.293Z,8.5
2019-01-15T10:37:52.683Z,8.4
2019-01-15T10:38:54.072Z,8.6
2019-01-15T10:39:55.462Z,8.5
2019-01-15T10:40:56.847Z,8.6
2019-01-15T10:41:58.261Z,8.5
2019-01-15T10:42:59.842Z,8.6
2019-01-15T10:44:01.230Z,8.6
2019-01-15T10:45:02.616Z,8.5
2019-01-15T10:46:04.003Z,8.5
2019-01-15T10:47:05.393Z,8.5
2019-01-15T10:48:06.783Z,8.4
2019-01-15T10:49:08.168Z,8.5
2019-01-15T10:50:09.553Z,8.5
2019-01-15T10:51:10.938Z,8.5
2019-01-15T10:52:12.327Z,8.5
2019-01-15T10:53:13.712Z,8.5
2019-01-15T10:54:15.104Z,8.4
2019-01-15T10:55:16.490Z,8.5
2019-01-15T10:56:17.875Z,8.4
2019-01-15T10:57:19.263Z,8.5
2019-01-15T10:58:20.660Z,8.5
2019-01-15T10:59:22.042Z,8.5
2019-01-15T11:00:23.425Z,8.5
2019-01-15T11:01:24.817Z,8.5
2019-01-15T11:02:26.204Z,8.5
2019-01-15T11:03:27.585Z,8.4
2019-01-15T11:04:28.971Z,8.5
2019-01-15T11:05:30.356Z,8.5
2019-01-15T11:06:31.741Z,8.4
2019-01-15T11:07:33.127Z,8.5
2019-01-15T11:08:34.513Z,8.5
2019-01-15T11:09:35.900Z,8.5
2019-01-15T11:10:37.290Z,8.5
2019-01-15T11:11:38.670Z,8.5
2019-01-15T11:12:40.050Z,8.5
2019-01-15T11:13:41.436Z,8.5
2019-01-15T11:14:42.813Z,8.5
2019-01-15T11:15:44.201Z,8.5
2019-01-15T11:16:45.595Z,8.7
2019-01-15T11:17:46.976Z,8.6
2019-01-15T11:18:48.363Z,8.7
2019-01-15T11:19:49.750Z,8.6
2019-01-15T11:20:51.135Z,8.5
2019-01-15T11:21:52.518Z,8.5
2019-01-15T11:22:53.908Z,8.6
2019-01-15T11:23:55.297Z,8.6
2019-01-15T11:24:56.684Z,8.6
2019-01-15T11:25:58.072Z,8.6
2019-01-15T11:26:59.496Z,8.7
2019-01-15T11:28:00.885Z,8.6
2019-01-15T11:29:02.302Z,8.6
2019-01-15T11:30:03.688Z,8.5
2019-01-15T11:31:05.077Z,8.5
2019-01-15T11:32:06.461Z,8.5
2019-01-15T11:33:07.844Z,8.5
2019-01-15T11:34:09.410Z,8.5
2019-01-15T11:35:10.844Z,8.5
2019-01-15T11:36:12.231Z,8.6
2019-01-15T11:37:13.622Z,8.6
2019-01-15T11:38:15.010Z,8.6
2019-01-15T11:39:16.395Z,8.6
2019-01-15T11:40:17.783Z,8.5
2019-01-15T11:41:19.440Z,8.5
2019-01-15T11:42:20.846Z,8.5
2019-01-15T11:43:22.415Z,8.6
2019-01-15T11:44:23.883Z,8.6
2019-01-15T11:45:25.532Z,8.6
2019-01-15T11:46:26.877Z,8.5
2019-01-15T11:47:28.269Z,8.5
2019-01-15T11:48:29.703Z,8.6
2019-01-15T11:49:31.179Z,8.5
2019-01-15T11:50:32.533Z,8.5
2019-01-15T11:51:33.923Z,8.6
2019-01-15T11:52:35.313Z,8.7
2019-01-15T11:53:36.702Z,8.6
2019-01-15T11:54:38.083Z,8.5
2019-01-15T11:55:39.468Z,8.6
2019-01-15T11:56:40.854Z,8.6
2019-01-15T11:57:42.307Z,8.6
2019-01-15T11:58:43.706Z,8.6
2019-01-15T11:59:45.088Z,8.6
2019-01-15T12:00:46.474Z,8.6
2019-01-15T12:01:47.859Z,8.5
2019-01-15T12:02:49.245Z,8.5
2019-01-15T12:03:50.627Z,8.6
2019-01-15T12:04:52.012Z,8.6
2019-01-15T12:05:53.398Z,8.6
2019-01-15T12:06:54.787Z,8.6
2019-01-15T12:07:56.175Z,8.5
2019-01-15T12:08:57.564Z,8.6
2019-01-15T12:09:58.951Z,8.5
2019-01-15T12:11:00.337Z,8.5
2019-01-15T12:12:01.720Z,8.5
2019-01-15T12:13:03.109Z,8.5
2019-01-15T12:14:04.492Z,8.4
2019-01-15T12:15:10.831Z,8.5
2019-01-15T12:16:07.231Z,8.5
2019-01-15T12:17:08.615Z,8.4
2019-01-15T12:18:10.002Z,8.5
2019-01-15T12:19:11.388Z,8.5
2019-01-15T12:20:12.772Z,8.5
2019-01-15T12:21:14.155Z,8.5
2019-01-15T12:22:15.539Z,8.5
2019-01-15T12:23:16.918Z,8.4
2019-01-15T12:24:18.533Z,8.5
2019-01-15T12:25:19.918Z,8.5
2019-01-15T12:26:21.305Z,8.4
2019-01-15T12:27:22.693Z,8.5
2019-01-15T12:28:24.079Z,8.5
2019-01-15T12:29:25.461Z,8.4
2019-01-15T12:30:26.857Z,8.5
2019-01-15T12:31:28.242Z,8.4
2019-01-15T12:32:29.680Z,8.4
2019-01-15T12:33:31.063Z,8.4
2019-01-15T12:34:32.451Z,8.3
2019-01-15T12:35:33.833Z,8.4
2019-01-15T12:36:35.217Z,8.3
2019-01-15T12:37:36.601Z,8.4
2019-01-15T12:38:37.984Z,8.4
2019-01-15T12:39:39.366Z,8.4
2019-01-15T12:40:40.754Z,8.4
2019-01-15T12:41:42.142Z,8.3
2019-01-15T12:42:43.526Z,8.3
2019-01-15T12:43:44.938Z,8.3
2019-01-15T12:44:46.320Z,8.3
2019-01-15T12:45:47.704Z,8.3
2019-01-15T12:46:49.090Z,8.2
2019-01-15T12:47:50.478Z,8.4
2019-01-15T12:48:51.861Z,8.3
2019-01-15T12:49:53.247Z,8.3
2019-01-15T12:50:54.629Z,8.3
2019-01-15T12:51:56.019Z,8.4
2019-01-15T12:52:57.403Z,8.3
2019-01-15T12:53:58.789Z,8.3
2019-01-15T12:55:00.256Z,8.3
2019-01-15T12:56:01.641Z,8.4
2019-01-15T12:57:03.024Z,8.3
2019-01-15T12:58:04.419Z,8.3
2019-01-15T12:59:05.811Z,8.4
2019-01-15T13:00:07.197Z,8.4
2019-01-15T13:01:08.586Z,8.3
2019-01-15T13:02:09.974Z,8.4
2019-01-15T13:03:11.359Z,8.4
2019-01-15T13:04:12.745Z,8.4
2019-01-15T13:05:14.132Z,8.4
2019-01-15T13:06:15.517Z,8.3
2019-01-15T13:07:16.903Z,8.4
2019-01-15T13:08:18.289Z,8.3
2019-01-15T13:09:19.676Z,8.3
2019-01-15T13:10:21.059Z,8.4
2019-01-15T13:11:22.445Z,8.4
2019-01-15T13:12:23.828Z,8.4
2019-01-15T13:13:25.276Z,8.4
2019-01-15T13:14:26.664Z,8.3
2019-01-15T13:15:34.489Z,8.4
2019-01-15T13:16:29.542Z,8.4
2019-01-15T13:17:30.927Z,8.3
2019-01-15T13:18:32.317Z,8.4
2019-01-15T13:19:33.698Z,8.4
2019-01-15T13:20:35.086Z,8.4
2019-01-15T13:21:36.481Z,8.4
2019-01-15T13:22:37.858Z,8.4
2019-01-15T13:23:39.250Z,8.3
2019-01-15T13:24:40.627Z,8.4
2019-01-15T13:25:42.058Z,8.4
2019-01-15T13:26:43.446Z,8.4
2019-01-15T13:27:44.829Z,8.4
2019-01-15T13:28:46.215Z,8.3
2019-01-15T13:29:47.600Z,8.4
2019-01-15T13:30:48.986Z,8.4
2019-01-15T13:31:50.370Z,8.4
2019-01-15T13:32:51.753Z,8.4
2019-01-15T13:33:53.143Z,8.3
2019-01-15T13:34:54.518Z,8.3
2019-01-15T13:35:55.909Z,8.4
2019-01-15T13:36:57.302Z,8.4
2019-01-15T13:37:58.682Z,8.4
2019-01-15T13:39:00.067Z,8.4
2019-01-15T13:40:01.476Z,8.3
2019-01-15T13:41:02.843Z,8.4
2019-01-15T13:42:04.227Z,8.4
2019-01-15T13:43:05.614Z,8.5
2019-01-15T13:44:07.001Z,8.3
2019-01-15T13:45:08.385Z,8.4
2019-01-15T13:46:09.778Z,8.3
2019-01-15T13:47:11.159Z,8.4
2019-01-15T13:48:12.544Z,8.3
2019-01-15T13:49:13.929Z,8.3
2019-01-15T13:50:15.314Z,8.3
2019-01-15T13:51:16.705Z,8.5
2019-01-15T13:52:18.099Z,8.5
2019-01-15T13:53:19.486Z,8.4
2019-01-15T13:54:20.868Z,8.3
2019-01-15T13:55:22.251Z,8.5
2019-01-15T13:56:23.636Z,8.4
2019-01-15T13:57:25.019Z,8.4
2019-01-15T13:58:26.410Z,8.4
2019-01-15T13:59:27.797Z,8.4
2019-01-15T14:00:29.215Z,8.4
2019-01-15T14:01:30.599Z,8.3
2019-01-15T14:02:31.980Z,8.4
2019-01-15T14:03:33.366Z,8.4
2019-01-15T14:04:34.752Z,8.4
2019-01-15T14:05:36.135Z,8.4